Time;durP1;ratioP1;P1;durP2;ratioP2;P2;SDS_P1;SDS_P2;PMS_P1;PMS_P2;Temp;Humidity;BMP_temperature;BMP_pressure;BME280_temperature;BME280_humidity;BME280_pressure;Samples;Min_cycle;Max_cycle;Signal;HPM_P1;HPM_P2
2023/06/06 00:01:57;;;;;;;3.10;2.22;;;;;;;12.62;80.03;101284.81;5052465;28;20040;-83
2023/06/06 00:04:25;;;;;;;3.55;2.00;;;;;;;12.53;80.50;101283.22;5058250;28;20032;-82
2023/06/06 00:06:52;;;;;;;2.90;2.10;;;;;;;12.56;80.58;101288.44;5070112;28;20041;-82
2023/06/06 00:09:19;;;;;;;3.33;2.38;;;;;;;12.58;80.24;101283.09;5075374;28;20546;-83
2023/06/06 00:11:48;;;;;;;4.22;2.42;;;;;;;12.56;80.78;101279.63;5079336;28;20039;-83
2023/06/06 00:14:18;;;;;;;4.03;2.25;;;;;;;12.42;81.42;101276.34;5047836;28;20047;-83
2023/06/06 00:16:49;;;;;;;4.18;2.05;;;;;;;12.33;81.86;101278.25;5045752;28;20429;-83
2023/06/06 00:19:17;;;;;;;2.88;2.00;;;;;;;12.23;83.15;101275.78;5072375;28;20723;-83
2023/06/06 00:21:44;;;;;;;2.55;2.22;;;;;;;12.11;84.12;101272.47;5054802;28;20050;-83
2023/06/06 00:24:11;;;;;;;2.60;1.73;;;;;;;11.97;85.41;101281.53;5059425;28;20573;-83
2023/06/06 00:26:38;;;;;;;6.00;2.38;;;;;;;11.97;85.11;101278.88;5044206;28;20066;-83
2023/06/06 00:29:05;;;;;;;2.45;1.75;;;;;;;11.88;85.73;101271.09;5048685;28;20050;-82
2023/06/06 00:31:32;;;;;;;3.33;2.50;;;;;;;11.94;85.44;101265.69;5055970;28;20661;-82
2023/06/06 00:33:59;;;;;;;4.10;2.03;;;;;;;11.85;86.63;101272.00;5066521;28;20054;-83
2023/06/06 00:36:26;;;;;;;3.53;2.53;;;;;;;11.82;87.48;101270.28;5060254;28;20044;-82
2023/06/06 00:38:52;;;;;;;2.90;2.00;;;;;;;11.86;86.84;101264.97;5060394;28;20048;-82
2023/06/06 00:41:20;;;;;;;4.00;2.30;;;;;;;11.84;87.52;101263.19;5052600;28;20058;-83
2023/06/06 00:43:46;;;;;;;2.75;1.98;;;;;;;11.74;87.66;101261.56;5056178;28;20475;-82
2023/06/06 00:46:13;;;;;;;3.13;1.80;;;;;;;11.67;88.18;101262.53;5032584;28;20048;-83
2023/06/06 00:48:40;;;;;;;3.70;2.72;;;;;;;11.57;88.67;101259.16;5060187;28;20543;-83
2023/06/06 00:51:08;;;;;;;3.30;2.33;;;;;;;11.48;89.71;101258.44;5047481;28;20044;-82
2023/06/06 00:53:36;;;;;;;3.85;2.25;;;;;;;11.45;89.83;101255.84;5071984;28;20544;-83
2023/06/06 00:56:04;;;;;;;2.92;2.17;;;;;;;11.49;89.67;101258.41;5046726;28;20452;-82
2023/06/06 00:58:31;;;;;;;4.25;2.30;;;;;;;11.47;89.67;101261.97;5037632;28;20037;-81
2023/06/06 01:00:59;;;;;;;10.98;2.60;;;;;;;11.28;91.08;101264.00;5040443;28;20049;-82
2023/06/06 01:03:26;;;;;;;3.35;2.20;;;;;;;11.31;91.22;101261.31;5063797;28;20040;-81
2023/06/06 01:05:53;;;;;;;4.13;2.70;;;;;;;11.32;91.28;101259.53;5064053;28;20101;-82
2023/06/06 01:08:20;;;;;;;4.22;2.15;;;;;;;11.27;91.27;101252.56;5075728;28;20063;-83
2023/06/06 01:10:47;;;;;;;3.92;2.40;;;;;;;11.26;91.15;101253.44;5040246;28;20075;-82
2023/06/06 09:19:10;;;;;;;4.65;2.22;;;;;;;28.24;26.22;101191.81;5008908;28;20052;-80
2023/06/06 09:21:37;;;;;;;5.40;2.30;;;;;;;28.74;26.10;101192.00;5011185;28;20039;-84
2023/06/06 09:24:04;;;;;;;4.72;2.20;;;;;;;28.80;25.30;101186.03;5001128;28;20087;-82
2023/06/06 09:26:33;;;;;;;9.32;3.15;;;;;;;28.87;25.30;101193.50;5010608;28;20139;-83
2023/06/06 09:29:16;;;;;;;3.05;2.15;;;;;;;28.98;25.92;101191.69;5022549;28;20450;-83
2023/06/06 09:31:43;;;;;;;5.05;2.20;;;;;;;28.58;25.33;101192.47;5007988;28;20438;-84
2023/06/06 09:34:10;;;;;;;2.40;2.20;;;;;;;28.73;25.63;101193.00;5031976;28;20382;-86
2023/06/06 09:36:40;;;;;;;6.85;3.05;;;;;;;29.11;25.52;101190.47;5001000;28;20580;-83
2023/06/06 09:39:14;;;;;;;3.03;2.25;;;;;;;28.66;25.64;101178.22;5005448;28;20292;-84
2023/06/06 09:41:45;;;;;;;2.88;2.22;;;;;;;28.99;25.68;101183.41;5014440;28;20045;-82
2023/06/06 09:44:19;;;;;;;3.85;2.20;;;;;;;29.52;25.68;101188.59;5000112;28;20084;-83
2023/06/06 09:47:12;;;;;;;2.47;1.80;;;;;;;28.51;25.01;101178.59;4989864;28;20046;-83
2023/06/06 09:49:39;;;;;;;3.90;2.17;;;;;;;28.27;26.08;101187.00;4975357;28;20058;-82
2023/06/06 09:52:13;;;;;;;3.92;2.25;;;;;;;29.11;24.87;101179.59;5018864;28;20046;-82
2023/06/06 09:54:43;;;;;;;55.30;8.02;;;;;;;28.94;24.41;101191.13;4982648;28;20061;-84
2023/06/06 09:57:13;;;;;;;4.28;2.22;;;;;;;29.15;24.97;101178.31;4992232;28;20042;-82
2023/06/06 09:59:44;;;;;;;4.70;2.30;;;;;;;28.82;22.71;101178.56;4989672;28;20045;-81
2023/06/06 10:02:11;;;;;;;3.35;2.28;;;;;;;28.58;22.85;101173.44;4991946;28;20045;-84
2023/06/06 10:04:38;;;;;;;3.35;2.10;;;;;;;28.79;22.32;101177.00;5017953;28;20038;-82
2023/06/06 10:07:06;;;;;;;3.47;2.53;;;;;;;28.74;23.04;101171.09;5001340;28;20104;-83
2023/06/06 10:09:35;;;;;;;6.13;2.63;;;;;;;29.32;24.05;101178.63;4991313;28;20046;-83
2023/06/06 10:12:02;;;;;;;2.67;2.03;;;;;;;29.79;23.81;101176.16;5007133;28;20400;-83
2023/06/06 10:14:30;;;;;;;3.15;2.42;;;;;;;28.70;24.01;101179.69;4999898;28;20124;-82
2023/06/06 10:16:57;;;;;;;2.80;2.08;;;;;;;29.25;25.03;101180.19;5015459;28;20045;-82
2023/06/06 10:19:25;;;;;;;4.47;2.35;;;;;;;29.33;24.16;101180.34;5014769;28;20112;-81
2023/06/06 10:21:52;;;;;;;3.67;2.53;;;;;;;28.82;24.83;101162.25;5007238;28;20518;-82
2023/06/06 10:24:19;;;;;;;5.03;2.97;;;;;;;29.03;25.64;101162.25;5011054;28;20037;-81
2023/06/06 10:27:10;;;;;;;3.15;2.85;;;;;;;29.46;25.33;101164.63;5005748;28;20129;-82
2023/06/06 10:30:01;;;;;;;2.40;2.20;;;;;;;29.17;24.25;101170.00;4998755;28;20044;-82
2023/06/06 10:32:54;;;;;;;4.45;2.50;;;;;;;28.64;24.30;101174.78;4993185;28;20490;-83
2023/06/06 10:35:23;;;;;;;5.13;2.72;;;;;;;28.14;26.06;101174.59;5013735;28;20033;-82
2023/06/06 10:38:07;;;;;;;11.85;3.10;;;;;;;28.17;25.44;101168.91;5010995;28;20042;-82
2023/06/06 10:40:50;;;;;;;8.00;2.92;;;;;;;27.69;25.85;101172.09;5010305;28;20048;-82
2023/06/06 10:43:41;;;;;;;3.15;2.30;;;;;;;27.47;26.66;101170.28;4998407;28;20042;-82
2023/06/06 10:46:08;;;;;;;3.55;2.40;;;;;;;27.32;26.75;101172.41;5026707;28;20648;-83
2023/06/06 10:48:37;;;;;;;4.55;2.47;;;;;;;26.70;27.54;101172.09;4994825;28;20042;-81
2023/06/06 10:51:05;;;;;;;3.47;2.22;;;;;;;27.10;27.79;101165.19;5016591;28;20107;-82
2023/06/06 10:53:32;;;;;;;2.85;2.60;;;;;;;27.50;26.60;101151.03;5017577;28;20038;-85
2023/06/06 10:55:59;;;;;;;3.15;2.83;;;;;;;27.45;26.11;101154.13;5006767;28;20463;-82
2023/06/06 10:58:28;;;;;;;3.75;2.60;;;;;;;26.76;27.71;101171.59;4980842;28;20053;-83
2023/06/06 11:01:03;;;;;;;3.95;2.42;;;;;;;27.04;27.27;101152.13;4980155;28;20053;-83
2023/06/06 11:03:40;;;;;;;3.97;2.60;;;;;;;27.43;27.09;101147.97;4998291;28;20048;-84
2023/06/06 11:06:12;;;;;;;3.67;2.33;;;;;;;27.72;26.53;101141.97;4991658;28;20083;-83
2023/06/06 11:08:43;;;;;;;3.78;2.50;;;;;;;27.53;26.25;101152.63;5001497;28;20122;-82
2023/06/06 11:11:30;;;;;;;2.95;2.40;;;;;;;27.83;26.71;101141.03;5020050;28;20050;-83
2023/06/06 11:14:07;;;;;;;4.97;2.90;;;;;;;28.08;25.59;101145.22;4985876;28;20038;-84
2023/06/06 11:16:37;;;;;;;3.78;2.50;;;;;;;28.20;25.95;101141.47;4982014;28;20430;-83
2023/06/06 11:19:15;;;;;;;2.90;2.60;;;;;;;28.52;25.75;101152.28;5032438;28;20045;-84
2023/06/06 11:21:43;;;;;;;3.28;2.42;;;;;;;28.92;24.84;101138.69;4993677;28;20557;-84
2023/06/06 11:24:10;;;;;;;4.15;2.33;;;;;;;29.07;24.82;101131.88;5002133;28;20076;-85
2023/06/06 11:26:39;;;;;;;4.20;2.67;;;;;;;29.30;24.66;101123.47;4986341;28;20192;-83
2023/06/06 11:29:10;;;;;;;6.25;2.88;;;;;;;28.71;25.10;101138.75;4993173;28;20502;-84
2023/06/06 11:31:38;;;;;;;4.65;2.78;;;;;;;29.48;24.56;101120.91;4980365;28;20080;-84
2023/06/06 11:34:14;;;;;;;2.78;2.47;;;;;;;29.99;24.83;101128.81;4995154;28;20055;-83
2023/06/06 11:36:42;;;;;;;5.35;2.80;;;;;;;30.02;23.85;101127.66;5001180;28;20323;-85
2023/06/06 11:39:11;;;;;;;3.42;2.60;;;;;;;30.10;24.06;101134.16;4968105;28;20122;-84
2023/06/06 11:41:49;;;;;;;3.35;2.92;;;;;;;30.39;24.40;101127.75;4991471;28;20041;-84
2023/06/06 11:44:17;;;;;;;3.08;2.58;;;;;;;30.16;23.69;101121.78;4971555;28;20044;-84
2023/06/06 11:46:53;;;;;;;4.15;2.55;;;;;;;30.35;23.96;101115.41;4978411;28;20089;-83
2023/06/06 11:49:21;;;;;;;5.88;2.60;;;;;;;30.38;24.32;101120.59;4991288;28;20477;-84
2023/06/06 11:51:58;;;;;;;4.28;2.90;;;;;;;30.52;23.43;101118.25;4990629;28;20046;-84
2023/06/06 11:54:27;;;;;;;6.80;3.10;;;;;;;30.17;23.65;101115.31;4977799;28;20050;-84
2023/06/06 11:56:59;;;;;;;5.68;2.63;;;;;;;30.05;23.86;101111.03;5003334;28;20671;-83
2023/06/06 11:59:30;;;;;;;6.93;3.00;;;;;;;30.29;23.83;101107.84;4976344;28;20069;-84
2023/06/06 12:01:59;;;;;;;3.38;2.60;;;;;;;29.73;24.22;101116.78;4998625;28;20045;-84
2023/06/06 12:04:27;;;;;;;3.08;2.65;;;;;;;29.90;23.78;101116.06;4979557;28;20496;-84
2023/06/06 12:06:55;;;;;;;3.15;2.60;;;;;;;30.16;23.88;101111.72;4992829;28;20498;-84
2023/06/06 12:09:23;;;;;;;3.88;2.55;;;;;;;29.97;23.99;101119.94;5009144;28;20064;-83
2023/06/06 12:11:54;;;;;;;3.03;2.67;;;;;;;29.82;24.18;101118.66;4992404;28;20068;-84
2023/06/06 12:14:24;;;;;;;3.15;2.47;;;;;;;30.07;23.72;101117.19;4990439;28;20041;-85
2023/06/06 12:16:51;;;;;;;3.65;2.63;;;;;;;29.49;24.54;101112.63;4996606;28;20038;-83
2023/06/06 12:19:19;;;;;;;3.17;2.45;;;;;;;29.70;24.69;101110.66;4994897;28;20701;-83
2023/06/06 12:21:48;;;;;;;2.90;2.50;;;;;;;29.98;23.93;101105.28;4991470;28;20065;-83
2023/06/06 12:24:25;;;;;;;6.03;2.78;;;;;;;29.94;24.58;101095.72;4980075;28;20056;-82
2023/06/06 12:26:56;;;;;;;3.65;2.30;;;;;;;30.37;25.41;101106.09;4987510;28;20037;-84
2023/06/06 12:29:26;;;;;;;3.80;2.80;;;;;;;29.71;24.57;101116.94;4997468;28;20049;-83
2023/06/06 12:32:26;;;;;;;3.05;2.70;;;;;;;29.85;24.40;101099.28;4976515;28;20060;-81
2023/06/06 12:35:05;;;;;;;3.53;2.90;;;;;;;30.12;24.92;101096.69;5003256;28;20041;-83
2023/06/06 12:37:42;;;;;;;2.72;2.47;;;;;;;29.94;25.19;101106.59;5008682;28;20056;-82
2023/06/06 12:40:20;;;;;;;2.47;2.28;;;;;;;29.58;25.37;101100.88;4978774;28;20038;-83
2023/06/06 12:42:54;;;;;;;2.75;2.25;;;;;;;29.34;25.39;101103.13;5006297;28;20136;-83
2023/06/06 12:45:22;;;;;;;3.75;2.50;;;;;;;29.08;25.13;101103.66;5000453;28;20041;-84
2023/06/06 12:47:51;;;;;;;2.67;2.47;;;;;;;28.73;25.67;101101.41;4996917;28;20117;-86
2023/06/06 12:50:18;;;;;;;3.88;2.70;;;;;;;28.45;26.49;101105.75;5013866;28;20095;-86
2023/06/06 12:52:49;;;;;;;2.50;2.30;;;;;;;28.40;26.25;101104.41;4988788;28;20056;-85
2023/06/06 12:55:17;;;;;;;3.13;2.40;;;;;;;28.31;26.14;101096.06;4979247;28;20129;-86
2023/06/06 12:57:45;;;;;;;3.35;2.20;;;;;;;28.54;26.43;101099.47;4987629;28;20051;-85
2023/06/06 13:00:14;;;;;;;2.75;2.20;;;;;;;28.86;25.99;101095.72;4979053;28;20565;-85
2023/06/06 13:02:42;;;;;;;5.60;2.88;;;;;;;29.13;26.01;101095.97;5008876;28;20037;-85
2023/06/06 13:05:09;;;;;;;4.95;2.70;;;;;;;29.08;24.90;101091.94;4979223;28;20136;-84
2023/06/06 13:07:36;;;;;;;2.30;2.05;;;;;;;29.34;25.63;101087.66;4975349;28;20478;-85
2023/06/06 13:10:08;;;;;;;5.20;2.65;;;;;;;29.67;25.65;101089.13;4978756;28;20053;-85
2023/06/06 13:12:40;;;;;;;3.88;2.80;;;;;;;29.40;24.56;101097.13;4980936;28;20050;-85
2023/06/06 13:15:11;;;;;;;4.18;2.72;;;;;;;28.65;26.32;101097.66;4976649;28;20045;-85
2023/06/06 13:17:38;;;;;;;4.22;3.03;;;;;;;28.58;25.80;101091.91;4972585;28;20052;-85
2023/06/06 13:20:08;;;;;;;2.45;2.20;;;;;;;27.73;26.66;101092.97;5011579;28;20042;-85
2023/06/06 13:22:36;;;;;;;3.05;2.25;;;;;;;28.02;26.83;101087.75;5009007;28;20073;-85
2023/06/06 13:25:04;;;;;;;4.47;2.70;;;;;;;27.42;27.84;101089.28;5010366;28;20133;-85
2023/06/06 13:27:30;;;;;;;4.22;2.30;;;;;;;27.48;28.30;101094.16;4974079;28;20073;-86
2023/06/06 13:29:57;;;;;;;4.32;2.83;;;;;;;27.49;26.98;101090.47;4974854;28;20136;-86
2023/06/06 13:32:24;;;;;;;3.33;2.50;;;;;;;27.37;27.94;101090.63;5000424;28;20120;-85
2023/06/06 13:34:51;;;;;;;4.53;2.60;;;;;;;27.44;27.52;101084.56;5028057;28;20044;-85
2023/06/06 13:37:20;;;;;;;3.55;2.58;;;;;;;27.49;27.29;101082.34;4994887;28;20049;-85
2023/06/06 13:39:46;;;;;;;3.78;2.63;;;;;;;27.52;27.11;101085.78;4983169;28;20042;-85
2023/06/06 13:42:13;;;;;;;3.45;2.50;;;;;;;27.45;27.86;101085.44;5001359;28;20048;-85
2023/06/06 13:44:40;;;;;;;3.80;2.90;;;;;;;27.17;28.03;101085.03;5013513;28;20055;-86
2023/06/06 13:47:07;;;;;;;3.97;2.63;;;;;;;27.09;28.42;101081.25;4988941;28;20533;-85
2023/06/06 13:49:34;;;;;;;18.60;4.25;;;;;;;27.01;28.63;101078.28;5003240;28;20054;-87
2023/06/06 13:52:00;;;;;;;4.97;2.85;;;;;;;27.25;28.26;101080.84;4987533;28;20084;-86
2023/06/06 13:54:27;;;;;;;4.13;2.60;;;;;;;27.48;28.66;101077.88;4995834;28;20159;-86
2023/06/06 13:56:54;;;;;;;3.85;2.92;;;;;;;27.81;28.35;101072.44;4982616;28;20580;-85
2023/06/06 13:59:21;;;;;;;3.20;2.60;;;;;;;27.92;27.97;101069.69;4978880;28;20042;-85
2023/06/06 14:01:50;;;;;;;3.10;2.60;;;;;;;27.70;27.89;101066.09;4976668;28;20068;-84
2023/06/06 14:04:19;;;;;;;4.18;2.63;;;;;;;27.69;28.27;101075.22;4977476;28;20062;-85
2023/06/06 14:06:47;;;;;;;5.25;2.97;;;;;;;27.70;28.55;101071.50;4986315;28;20037;-85
2023/06/06 14:09:18;;;;;;;3.33;2.65;;;;;;;27.64;29.10;101074.72;4999007;28;20041;-85
2023/06/06 14:11:47;;;;;;;3.60;2.50;;;;;;;27.48;29.78;101069.72;4987472;28;20088;-85
2023/06/06 14:14:13;;;;;;;4.75;2.75;;;;;;;27.46;29.07;101070.88;5003755;28;20038;-86
2023/06/06 14:16:40;;;;;;;4.30;3.45;;;;;;;27.56;29.11;101065.50;4977608;28;20056;-86
2023/06/06 14:19:12;;;;;;;25.58;6.25;;;;;;;27.43;29.27;101066.56;4996884;28;20430;-86
2023/06/06 14:24:08;;;;;;;4.72;3.08;;;;;;;27.43;29.28;101068.44;5023579;28;20042;-85
2023/06/06 14:26:35;;;;;;;3.33;2.67;;;;;;;27.43;29.58;101066.56;5006117;28;20044;-84
2023/06/06 14:29:02;;;;;;;5.20;3.17;;;;;;;27.38;29.52;101062.50;5023667;28;20050;-84
2023/06/06 14:31:30;;;;;;;4.60;3.10;;;;;;;27.54;29.21;101068.34;4990517;28;20128;-84
2023/06/06 14:33:56;;;;;;;4.15;2.78;;;;;;;27.48;29.57;101058.88;4989300;28;20273;-85
2023/06/06 14:36:24;;;;;;;4.72;2.90;;;;;;;27.61;29.21;101057.84;4988499;28;20038;-85
2023/06/06 14:38:52;;;;;;;4.10;2.90;;;;;;;27.51;29.65;101062.34;4979361;28;20034;-85
2023/06/06 14:41:18;;;;;;;3.75;3.13;;;;;;;27.55;29.88;101061.06;5012058;28;20457;-85
2023/06/06 14:43:45;;;;;;;3.85;3.10;;;;;;;27.14;29.32;101058.16;4965879;28;20661;-86
2023/06/06 14:46:12;;;;;;;6.35;3.42;;;;;;;27.32;30.45;101063.03;4984472;28;20042;-85
2023/06/06 14:48:39;;;;;;;3.63;3.15;;;;;;;27.25;29.31;101062.69;4998614;28;20046;-84
2023/06/06 14:51:06;;;;;;;4.10;3.00;;;;;;;27.22;29.34;101065.66;4976963;28;20388;-86
2023/06/06 14:53:33;;;;;;;3.90;3.10;;;;;;;26.55;29.60;101063.91;4998884;28;20077;-86
2023/06/06 14:56:01;;;;;;;4.93;3.20;;;;;;;26.85;29.76;101059.69;4975122;28;20038;-85
2023/06/06 14:58:34;;;;;;;3.67;2.65;;;;;;;26.93;29.32;101049.94;4985627;28;20045;-86
2023/06/06 15:01:02;;;;;;;4.72;3.13;;;;;;;26.73;28.35;101061.56;5001681;28;20120;-86
2023/06/06 15:03:29;;;;;;;4.63;2.83;;;;;;;26.77;29.25;101057.63;4981467;28;20053;-85
2023/06/06 15:06:00;;;;;;;4.80;2.92;;;;;;;26.78;29.85;101062.03;4978045;28;20141;-86
2023/06/06 15:08:27;;;;;;;3.15;2.72;;;;;;;26.81;29.65;101056.38;4985692;28;20053;-85
2023/06/06 15:10:54;;;;;;;4.07;2.92;;;;;;;26.83;30.21;101059.84;4974669;28;20046;-85
2023/06/06 15:13:21;;;;;;;3.67;2.72;;;;;;;26.63;30.55;101063.28;5013917;28;20423;-85
2023/06/06 15:15:47;;;;;;;4.00;2.97;;;;;;;26.31;30.87;101057.72;4978772;28;20142;-85
2023/06/06 15:18:15;;;;;;;4.60;3.28;;;;;;;26.09;30.88;101062.16;4994473;28;20064;-84
2023/06/06 15:20:41;;;;;;;5.15;3.28;;;;;;;26.25;31.23;101063.66;4978120;28;20052;-84
2023/06/06 15:23:08;;;;;;;3.67;2.80;;;;;;;26.18;32.18;101057.00;4978111;28;20046;-85
2023/06/06 15:25:37;;;;;;;3.20;2.50;;;;;;;26.21;32.52;101057.59;4977814;28;20041;-87
2023/06/06 15:28:03;;;;;;;3.35;2.72;;;;;;;26.38;31.34;101049.03;4993245;28;20100;-84
2023/06/06 15:30:30;;;;;;;12.35;4.65;;;;;;;26.15;32.09;101057.22;4994215;28;20519;-87
2023/06/06 15:32:57;;;;;;;17.00;4.60;;;;;;;26.09;32.42;101056.75;4997408;28;20434;-85
2023/06/06 15:35:24;;;;;;;4.28;3.28;;;;;;;26.03;30.56;101050.94;4977637;28;20116;-86
2023/06/06 15:37:51;;;;;;;4.15;3.00;;;;;;;26.15;31.17;101050.00;4996491;28;20045;-85
2023/06/06 15:40:17;;;;;;;128.07;25.42;;;;;;;26.05;31.37;101044.44;4976757;28;20103;-86
2023/06/06 15:42:44;;;;;;;10.05;4.35;;;;;;;26.07;31.32;101044.31;4979542;28;20426;-86
2023/06/06 15:45:11;;;;;;;6.70;3.28;;;;;;;26.44;31.21;101049.53;4998583;28;20049;-85
2023/06/06 15:47:38;;;;;;;7.80;3.10;;;;;;;26.68;30.59;101050.25;4976435;28;20122;-85
2023/06/06 15:50:06;;;;;;;4.35;2.88;;;;;;;26.79;30.56;101041.22;4976595;28;20053;-86
2023/06/06 15:52:33;;;;;;;3.95;2.80;;;;;;;26.98;30.32;101037.84;4976392;28;20046;-86
2023/06/06 15:55:01;;;;;;;3.50;3.20;;;;;;;26.37;29.71;101041.00;4978925;28;20421;-86
2023/06/06 15:57:27;;;;;;;3.85;2.60;;;;;;;27.10;30.07;101028.72;4975638;28;20050;-86
2023/06/06 15:59:54;;;;;;;3.00;2.80;;;;;;;27.19;28.60;101030.66;4985055;28;20045;-85
2023/06/06 16:02:21;;;;;;;4.38;3.03;;;;;;;27.33;28.88;101026.78;4994078;28;20037;-85
2023/06/06 16:04:47;;;;;;;4.70;2.67;;;;;;;27.40;29.14;101020.69;4985951;28;20522;-86
2023/06/06 16:07:15;;;;;;;3.97;3.25;;;;;;;27.37;29.47;101015.53;4974291;28;20039;-86
2023/06/06 16:09:42;;;;;;;4.47;2.80;;;;;;;27.03;29.44;101024.78;4982492;28;20046;-86
2023/06/06 16:12:09;;;;;;;4.40;2.80;;;;;;;27.06;29.71;101027.25;4978400;28;20037;-87
2023/06/06 16:14:36;;;;;;;3.47;2.92;;;;;;;26.83;29.16;101027.31;4996415;28;20046;-86
2023/06/06 16:17:03;;;;;;;3.92;2.60;;;;;;;26.72;29.49;101026.44;4993392;28;20038;-86
2023/06/06 16:19:32;;;;;;;4.53;2.83;;;;;;;26.30;30.79;101037.06;4987422;28;20066;-87
2023/06/06 16:22:00;;;;;;;3.45;2.85;;;;;;;26.37;30.45;101033.72;4979488;28;20392;-86
2023/06/06 16:24:29;;;;;;;3.17;2.70;;;;;;;25.99;30.92;101033.25;5008869;28;20096;-86
2023/06/06 16:26:56;;;;;;;4.22;2.90;;;;;;;25.86;31.21;101035.19;4983270;28;20137;-85
2023/06/06 16:29:23;;;;;;;74.47;12.60;;;;;;;25.92;31.80;101040.13;5011234;28;20060;-86
2023/06/06 16:31:50;;;;;;;72.57;12.02;;;;;;;25.70;33.07;101033.63;4988921;28;20598;-85
2023/06/06 16:34:16;;;;;;;20.27;5.28;;;;;;;25.67;32.68;101039.28;4972714;28;20046;-84
2023/06/06 16:36:46;;;;;;;17.83;5.25;;;;;;;25.64;32.77;101041.38;5004801;28;20121;-85
2023/06/06 16:39:13;;;;;;;17.00;4.43;;;;;;;25.62;34.21;101044.19;4994026;28;20038;-85
2023/06/06 16:41:40;;;;;;;34.10;6.72;;;;;;;25.52;36.05;101051.31;4995317;28;20041;-85
2023/06/06 16:44:11;;;;;;;25.90;6.95;;;;;;;25.52;35.39;101052.16;4986204;28;20103;-85
2023/06/06 16:46:39;;;;;;;1189.80;231.57;;;;;;;25.60;36.22;101048.00;5002282;28;20037;-85
2023/06/06 16:49:06;;;;;;;35.75;8.35;;;;;;;25.38;33.44;101057.75;4974327;28;20044;-84
2023/06/06 16:51:32;;;;;;;21.35;4.35;;;;;;;25.37;32.88;101060.59;4998597;28;20070;-86
2023/06/06 16:53:59;;;;;;;10.68;3.78;;;;;;;25.31;33.43;101067.34;4981222;28;20044;-86
2023/06/06 16:56:26;;;;;;;6.65;3.58;;;;;;;25.21;34.22;101059.03;4995352;28;20129;-84
2023/06/06 16:58:53;;;;;;;84.47;11.25;;;;;;;25.06;32.84;101060.22;4981369;28;20642;-84
2023/06/06 17:01:20;;;;;;;8.90;2.65;;;;;;;25.00;34.21;101063.34;4994056;28;20042;-85
2023/06/06 17:03:47;;;;;;;4.15;2.70;;;;;;;25.03;34.12;101064.97;4992114;28;20042;-85
2023/06/06 17:06:15;;;;;;;4.95;2.50;;;;;;;24.87;33.58;101068.78;4989476;28;20037;-84
2023/06/06 17:08:42;;;;;;;4.78;2.70;;;;;;;24.85;35.19;101061.75;4995559;28;20041;-84
2023/06/06 17:11:13;;;;;;;6.32;2.70;;;;;;;24.57;33.81;101069.19;4982193;28;20042;-84
2023/06/06 17:13:40;;;;;;;2.95;2.20;;;;;;;24.63;34.32;101068.72;4999887;28;20475;-85
2023/06/06 17:16:07;;;;;;;2.65;2.45;;;;;;;24.65;34.08;101072.19;4993230;28;20062;-83
2023/06/06 17:18:34;;;;;;;4.25;2.72;;;;;;;24.78;34.30;101079.41;4997652;28;20083;-85
2023/06/06 17:21:04;;;;;;;3.45;2.45;;;;;;;24.74;33.87;101078.78;5007792;28;20049;-84
2023/06/06 17:23:31;;;;;;;3.97;2.50;;;;;;;24.69;34.49;101084.50;5001674;28;20057;-85
2023/06/06 17:25:58;;;;;;;3.33;2.40;;;;;;;24.63;34.23;101081.38;4981707;28;20042;-85
2023/06/06 17:28:25;;;;;;;4.47;2.70;;;;;;;24.51;34.56;101077.72;4983562;28;20072;-84
2023/06/06 17:30:53;;;;;;;5.38;2.47;;;;;;;24.57;34.66;101082.69;4985639;28;20076;-84
2023/06/06 17:33:20;;;;;;;8.35;2.72;;;;;;;24.42;35.36;101083.78;5015699;28;20049;-84
2023/06/06 17:35:48;;;;;;;2.80;2.45;;;;;;;24.34;34.71;101080.78;5008639;28;20040;-85
2023/06/06 17:38:15;;;;;;;4.85;2.38;;;;;;;24.44;34.66;101087.25;5007868;28;20076;-84
2023/06/06 17:40:42;;;;;;;3.30;2.13;;;;;;;24.44;34.60;101084.53;4988480;28;20068;-84
2023/06/06 17:43:09;;;;;;;5.32;2.65;;;;;;;24.38;35.20;101082.28;4981196;28;20044;-83
2023/06/06 17:45:36;;;;;;;3.15;2.22;;;;;;;24.24;34.70;101083.25;4988676;28;20041;-82
2023/06/06 17:48:04;;;;;;;2.95;2.25;;;;;;;24.21;35.30;101078.03;4998276;28;20037;-83
2023/06/06 17:50:31;;;;;;;3.80;2.38;;;;;;;24.19;36.06;101079.13;5001694;28;20092;-82
2023/06/06 17:52:59;;;;;;;2.72;2.40;;;;;;;24.08;36.86;101086.16;4990802;28;20038;-82
2023/06/06 17:55:25;;;;;;;3.20;2.38;;;;;;;24.08;36.71;101077.19;4992535;28;20068;-82
2023/06/06 17:57:52;;;;;;;5.40;2.42;;;;;;;24.02;36.48;101075.78;4996585;28;20038;-83
2023/06/06 18:00:21;;;;;;;2.90;2.17;;;;;;;24.15;36.57;101083.91;4978596;28;20045;-83
2023/06/06 18:02:50;;;;;;;3.53;2.20;;;;;;;24.05;36.53;101086.38;4985876;28;20041;-83
2023/06/06 18:05:18;;;;;;;6.10;2.65;;;;;;;23.98;38.50;101092.31;5013672;28;20051;-83
2023/06/06 18:08:03;;;;;;;3.63;2.35;;;;;;;23.93;37.28;101089.91;4982988;28;20096;-83
2023/06/06 18:10:30;;;;;;;3.55;2.50;;;;;;;23.94;36.48;101091.66;5011918;28;20143;-81
2023/06/06 18:12:57;;;;;;;3.28;2.20;;;;;;;23.82;37.29;101092.50;5005829;28;20053;-83
2023/06/06 18:15:24;;;;;;;4.35;2.70;;;;;;;23.90;37.44;101097.38;5015001;28;20068;-82
2023/06/06 18:17:50;;;;;;;3.65;2.83;;;;;;;23.89;37.53;101090.25;4979094;28;20038;-81
2023/06/06 18:20:17;;;;;;;3.38;2.33;;;;;;;23.72;38.80;101094.97;5006647;28;20144;-83
2023/06/06 18:22:44;;;;;;;3.40;2.55;;;;;;;23.85;36.44;101095.84;5022667;28;20523;-83
2023/06/06 18:25:11;;;;;;;3.55;2.22;;;;;;;23.72;37.37;101099.50;4984539;28;20061;-83
2023/06/06 18:27:38;;;;;;;3.40;2.33;;;;;;;23.77;37.83;101100.03;5003159;28;20036;-81
2023/06/06 18:30:06;;;;;;;2.70;2.15;;;;;;;23.54;38.43;101094.38;4996442;28;20046;-83
2023/06/06 18:32:34;;;;;;;4.18;2.45;;;;;;;23.51;38.84;101102.66;5000192;28;20049;-84
2023/06/06 18:35:01;;;;;;;4.03;2.33;;;;;;;23.39;39.46;101102.63;4982780;28;20073;-83
2023/06/06 18:37:29;;;;;;;3.35;2.45;;;;;;;23.34;38.54;101110.16;4978108;28;20128;-83
2023/06/06 18:39:56;;;;;;;4.10;2.80;;;;;;;23.28;38.77;101114.09;4977415;28;20065;-85
2023/06/06 18:42:23;;;;;;;4.68;2.28;;;;;;;23.28;38.44;101120.34;4989666;28;20038;-81
2023/06/06 18:44:53;;;;;;;3.05;2.67;;;;;;;23.12;38.51;101122.38;5013396;28;20490;-84
2023/06/06 18:47:20;;;;;;;2.88;2.30;;;;;;;23.00;39.62;101134.78;4986976;28;20396;-84
2023/06/06 18:49:48;;;;;;;4.97;2.47;;;;;;;22.92;39.47;101131.72;4995615;28;20037;-82
2023/06/06 18:52:15;;;;;;;3.25;2.42;;;;;;;22.66;40.04;101137.88;5009077;28;20065;-82
2023/06/06 18:54:42;;;;;;;5.72;2.53;;;;;;;22.54;41.18;101142.22;4994776;28;21187;-83
2023/06/06 18:57:10;;;;;;;4.38;2.50;;;;;;;22.45;41.05;101140.97;4989110;28;20434;-83
2023/06/06 18:59:37;;;;;;;3.38;2.63;;;;;;;22.36;40.66;101148.72;5010545;28;20057;-82
2023/06/06 19:02:05;;;;;;;4.88;2.83;;;;;;;22.41;40.58;101146.63;4995397;28;20054;-82
2023/06/06 19:04:33;;;;;;;3.90;2.50;;;;;;;22.16;40.91;101148.16;4995026;28;20068;-83
2023/06/06 19:07:00;;;;;;;3.17;2.38;;;;;;;22.06;41.40;101151.47;4988838;28;20029;-83
2023/06/06 19:09:27;;;;;;;4.13;2.30;;;;;;;21.99;42.25;101152.78;4991405;28;20050;-82
2023/06/06 19:11:55;;;;;;;4.55;2.33;;;;;;;21.84;41.38;101158.13;4978074;28;20048;-82
2023/06/06 19:14:22;;;;;;;5.28;2.45;;;;;;;21.79;42.18;101160.22;5007801;28;20068;-81
2023/06/06 19:16:49;;;;;;;3.53;2.40;;;;;;;21.76;42.58;101155.00;4975239;28;20054;-82
2023/06/06 19:19:17;;;;;;;3.28;2.10;;;;;;;21.51;43.19;101165.47;4981471;28;20042;-82
2023/06/06 19:21:44;;;;;;;3.83;2.70;;;;;;;21.38;43.85;101164.47;5003022;28;20058;-82
2023/06/06 19:24:13;;;;;;;5.20;2.70;;;;;;;21.21;43.99;101173.47;4985736;28;20049;-83
2023/06/06 19:26:39;;;;;;;3.55;2.85;;;;;;;21.28;43.51;101175.75;4996126;28;20041;-83
2023/06/06 19:29:09;;;;;;;3.63;2.65;;;;;;;21.04;44.14;101174.41;5002286;28;20132;-82
2023/06/06 19:31:37;;;;;;;4.20;2.58;;;;;;;20.91;44.37;101176.03;5008690;28;20104;-81
2023/06/06 19:34:04;;;;;;;3.47;2.55;;;;;;;20.68;45.04;101185.34;5009273;28;20052;-83
2023/06/06 19:36:31;;;;;;;3.58;2.33;;;;;;;20.55;44.94;101195.88;4988428;28;20053;-83
2023/06/06 19:38:58;;;;;;;3.63;2.67;;;;;;;20.56;45.19;101197.63;4974714;28;20137;-83
2023/06/06 19:41:26;;;;;;;3.40;2.20;;;;;;;20.49;45.15;101204.25;5007770;28;20041;-83